Time;durP1;ratioP1;P1;durP2;ratioP2;P2;SDS_P1;SDS_P2;PMS_P1;PMS_P2;Temp;Humidity;BMP_temperature;BMP_pressure;BME280_temperature;BME280_humidity;BME280_pressure;Samples;Min_cycle;Max_cycle;Signal;HPM_P1;HPM_P2
2023/07/30 00:01:51;;;;;;;2.42;2.05;;;;;;;20.92;56.01;99290.28;10305024;28;20238;-72
2023/07/30 00:06:54;;;;;;;2.10;2.00;;;;;;;21.02;55.50;99329.22;10310707;28;20285;-72
2023/07/30 00:11:56;;;;;;;5.57;2.50;;;;;;;21.17;54.63;99357.56;10308144;28;20234;-72
2023/07/30 00:16:57;;;;;;;4.13;2.65;;;;;;;21.26;55.52;99307.00;10316916;28;20252;-72
2023/07/30 00:21:59;;;;;;;2.00;1.80;;;;;;;21.15;55.11;99321.66;10315858;28;20234;-72
2023/07/30 00:27:01;;;;;;;2.67;2.30;;;;;;;21.01;55.52;99315.88;10316610;28;20233;-72
2023/07/30 00:32:03;;;;;;;3.53;2.60;;;;;;;20.86;55.89;99320.16;10311250;28;20242;-72
2023/07/30 00:37:05;;;;;;;2.80;2.30;;;;;;;21.11;55.43;99320.56;10313734;28;20679;-72
2023/07/30 00:42:06;;;;;;;4.90;2.25;;;;;;;20.45;56.79;99354.44;10310977;28;20234;-73
2023/07/30 00:47:08;;;;;;;2.42;2.13;;;;;;;21.25;55.31;99351.59;10313768;28;20265;-72
2023/07/30 00:52:10;;;;;;;2.63;2.35;;;;;;;20.60;56.09;99376.28;10314423;28;20226;-72
2023/07/30 00:57:14;;;;;;;3.55;2.33;;;;;;;22.07;54.10;99319.16;10315038;28;20329;-72
2023/07/30 01:02:16;;;;;;;3.78;2.30;;;;;;;20.35;56.88;99374.19;10315223;28;20246;-72
2023/07/30 01:07:18;;;;;;;4.22;2.70;;;;;;;22.24;53.21;99327.03;10313531;28;20229;-72
2023/07/30 01:12:20;;;;;;;2.90;2.60;;;;;;;21.60;55.08;99350.13;10316269;28;20309;-72
2023/07/30 01:17:23;;;;;;;2.67;2.47;;;;;;;21.23;55.98;99338.28;10312711;28;20230;-73
2023/07/30 01:22:24;;;;;;;2.60;2.40;;;;;;;20.37;57.59;99366.59;10315022;28;20296;-72
2023/07/30 01:27:30;;;;;;;2.92;2.63;;;;;;;20.39;56.76;99382.63;10312340;28;20241;-72
2023/07/30 01:32:33;;;;;;;2.85;2.65;;;;;;;20.55;57.42;99343.63;10261025;28;20242;-72
2023/07/30 01:37:37;;;;;;;2.50;2.30;;;;;;;21.22;55.88;99339.38;10305367;28;20736;-72
2023/07/30 01:42:39;;;;;;;2.92;2.45;;;;;;;21.13;55.75;99353.75;10302412;28;20222;-72
2023/07/30 01:47:41;;;;;;;2.88;2.55;;;;;;;21.16;55.92;99343.16;10303613;28;20270;-72
2023/07/30 01:52:42;;;;;;;3.90;2.80;;;;;;;21.10;56.08;99362.44;10300226;28;20215;-72
2023/07/30 01:57:44;;;;;;;3.10;2.80;;;;;;;20.50;57.18;99403.38;10303730;28;20238;-72
2023/07/30 02:02:46;;;;;;;5.72;3.00;;;;;;;20.82;55.79;99388.97;10302707;28;20282;-72
2023/07/30 02:07:48;;;;;;;2.72;2.53;;;;;;;20.81;55.68;99395.47;10301757;28;20321;-72
2023/07/30 02:12:49;;;;;;;2.78;2.58;;;;;;;21.18;55.84;99357.31;10298779;28;20214;-72
2023/07/30 02:17:51;;;;;;;2.95;2.75;;;;;;;20.37;56.99;99392.94;10301422;28;20245;-72
2023/07/30 02:22:53;;;;;;;3.45;2.60;;;;;;;21.47;55.07;99350.63;10301420;28;20663;-73
2023/07/30 02:27:54;;;;;;;2.97;2.78;;;;;;;21.12;56.23;99361.09;10301670;28;20851;-72
2023/07/30 02:32:56;;;;;;;3.20;2.60;;;;;;;21.24;55.20;99391.63;10303632;28;20591;-72
2023/07/30 02:37:58;;;;;;;4.13;2.53;;;;;;;21.10;54.64;99419.56;10306886;28;20232;-72
2023/07/30 02:43:00;;;;;;;3.70;2.40;;;;;;;21.92;53.55;99379.03;10303849;28;20317;-72
2023/07/30 02:48:02;;;;;;;5.18;2.67;;;;;;;20.42;57.04;99393.00;10303307;28;20624;-72
2023/07/30 02:53:03;;;;;;;3.25;2.50;;;;;;;20.95;55.29;99425.72;10306048;28;20832;-73
2023/07/30 02:58:05;;;;;;;2.53;2.22;;;;;;;21.91;53.87;99371.94;10303655;28;20666;-72
2023/07/30 03:03:07;;;;;;;2.53;2.33;;;;;;;21.05;55.12;99426.63;10299632;28;20622;-71
2023/07/30 03:08:09;;;;;;;2.97;2.67;;;;;;;21.14;55.65;99396.16;10306398;28;20245;-73
2023/07/30 03:13:11;;;;;;;2.43;2.20;;;;;;;19.82;57.90;99455.38;10306160;28;20257;-73
2023/07/30 03:18:12;;;;;;;2.70;2.50;;;;;;;21.20;55.46;99379.59;10302554;28;20320;-72
2023/07/30 03:23:14;;;;;;;2.60;2.40;;;;;;;19.78;58.61;99435.25;10301169;28;20264;-73
2023/07/30 03:28:16;;;;;;;6.87;2.70;;;;;;;20.71;56.67;99404.34;10300066;28;20351;-72
2023/07/30 03:33:17;;;;;;;3.30;2.40;;;;;;;21.07;56.05;99377.41;10299623;28;20229;-73
2023/07/30 03:38:19;;;;;;;2.33;2.13;;;;;;;20.23;57.45;99409.69;10304945;28;20249;-72
2023/07/30 03:43:21;;;;;;;3.40;2.40;;;;;;;20.32;57.50;99418.16;10300538;28;20288;-70
2023/07/30 03:48:23;;;;;;;2.65;2.00;;;;;;;20.03;57.63;99425.75;10308167;28;20592;-73
2023/07/30 03:53:24;;;;;;;2.25;2.03;;;;;;;18.32;60.31;99473.25;10301601;28;20227;-72
2023/07/30 03:58:26;;;;;;;2.03;1.80;;;;;;;18.89;59.73;99436.22;10285087;28;20622;-71
2023/07/30 04:03:28;;;;;;;5.40;2.37;;;;;;;19.88;57.25;99419.06;10315564;28;20317;-72
2023/07/30 04:08:30;;;;;;;2.70;2.07;;;;;;;20.38;56.32;99432.59;10318472;28;20264;-72
2023/07/30 04:13:31;;;;;;;2.40;2.20;;;;;;;19.01;58.83;99488.47;10315578;28;20229;-73
2023/07/30 04:18:33;;;;;;;2.83;2.20;;;;;;;19.18;58.49;99462.16;10317790;28;20237;-72
2023/07/30 04:23:35;;;;;;;2.30;2.10;;;;;;;19.34;59.29;99436.06;10317940;28;20229;-72
2023/07/30 04:28:37;;;;;;;2.47;2.27;;;;;;;19.36;58.84;99449.38;10314349;28;20244;-72
2023/07/30 04:33:39;;;;;;;2.80;2.60;;;;;;;19.87;58.32;99422.88;10319495;28;20267;-72
2023/07/30 04:38:40;;;;;;;3.22;2.90;;;;;;;19.43;58.47;99520.53;10317738;28;20241;-72
2023/07/30 04:43:42;;;;;;;4.47;2.53;;;;;;;20.26;57.43;99459.94;10314458;28;20747;-72
2023/07/30 04:48:44;;;;;;;3.77;2.77;;;;;;;20.67;56.29;99469.28;10315843;28;20748;-72
2023/07/30 04:53:46;;;;;;;2.92;2.60;;;;;;;20.09;58.28;99460.00;10319178;28;20234;-71
2023/07/30 04:58:48;;;;;;;2.60;2.40;;;;;;;19.35;59.29;99534.53;10316289;28;20337;-71
2023/07/30 05:03:49;;;;;;;4.53;2.90;;;;;;;20.15;57.69;99488.06;10315308;28;20320;-72
2023/07/30 05:08:51;;;;;;;2.83;2.60;;;;;;;20.23;57.79;99449.63;10315724;28;20234;-72
2023/07/30 05:13:53;;;;;;;3.72;2.35;;;;;;;19.95;57.92;99476.72;10314830;28;20312;-72
2023/07/30 05:18:55;;;;;;;3.15;2.53;;;;;;;20.00;57.89;99475.13;10313680;28;20257;-70
2023/07/30 05:23:56;;;;;;;3.30;2.50;;;;;;;21.60;54.57;99468.00;10317900;28;20348;-69
2023/07/30 05:28:58;;;;;;;3.43;2.60;;;;;;;19.33;59.39;99548.38;10315111;28;20256;-69
2023/07/30 05:34:00;;;;;;;3.17;2.73;;;;;;;20.33;58.17;99484.19;10315488;28;20321;-70
2023/07/30 05:39:02;;;;;;;4.67;2.70;;;;;;;20.16;58.43;99479.66;10312452;28;20245;-69
2023/07/30 05:44:03;;;;;;;4.50;2.60;;;;;;;19.80;59.46;99484.69;10312073;28;20477;-69
2023/07/30 05:49:05;;;;;;;5.28;2.75;;;;;;;20.42;58.73;99458.19;10315729;28;20614;-69
2023/07/30 05:54:07;;;;;;;4.32;3.10;;;;;;;20.15;58.69;99478.00;10318304;28;20257;-70
2023/07/30 05:59:08;;;;;;;3.38;3.08;;;;;;;19.82;59.64;99484.44;10307351;28;20592;-69
2023/07/30 06:04:10;;;;;;;3.77;2.70;;;;;;;20.64;57.22;99507.03;10312473;28;20250;-70
2023/07/30 06:09:12;;;;;;;3.50;3.00;;;;;;;19.36;60.86;99509.06;10309984;28;20308;-69
2023/07/30 06:14:14;;;;;;;3.10;2.80;;;;;;;19.22;61.46;99519.44;10312499;28;20321;-69
2023/07/30 06:19:16;;;;;;;2.50;2.30;;;;;;;20.49;58.17;99478.63;10311193;28;20316;-70
2023/07/30 06:24:17;;;;;;;3.00;2.40;;;;;;;20.62;58.24;99474.69;10308195;28;20229;-69
2023/07/30 06:29:19;;;;;;;2.77;2.57;;;;;;;19.49;59.89;99540.44;10311866;28;20962;-71
2023/07/30 06:34:21;;;;;;;2.80;2.60;;;;;;;20.12;58.69;99528.22;10311665;28;20280;-70
2023/07/30 06:39:22;;;;;;;2.70;2.50;;;;;;;20.28;58.72;99515.66;10314510;28;20469;-69
2023/07/30 06:44:25;;;;;;;2.57;2.37;;;;;;;21.82;54.98;99505.13;10309681;28;20240;-69
2023/07/30 06:49:26;;;;;;;3.07;2.50;;;;;;;19.74;60.07;99567.16;10317326;28;20233;-70
2023/07/30 06:54:29;;;;;;;2.78;2.50;;;;;;;19.67;59.88;99545.63;10311585;28;20380;-70
2023/07/30 06:59:31;;;;;;;2.63;2.42;;;;;;;20.00;59.27;99564.75;10313755;28;20321;-69
2023/07/30 07:04:33;;;;;;;2.85;2.65;;;;;;;19.13;60.37;99621.25;10311928;28;20234;-69
2023/07/30 07:09:34;;;;;;;2.90;2.67;;;;;;;20.40;58.85;99561.72;10313250;28;20703;-69
2023/07/30 07:14:36;;;;;;;2.88;2.60;;;;;;;19.92;59.26;99610.28;10311961;28;20709;-69
2023/07/30 07:19:38;;;;;;;3.55;2.92;;;;;;;21.18;57.43;99560.53;10313287;28;20665;-69
2023/07/30 07:24:39;;;;;;;3.13;2.90;;;;;;;20.27;59.61;99578.41;10321807;28;20232;-69
2023/07/30 07:29:41;;;;;;;2.95;2.75;;;;;;;20.29;58.65;99622.44;10320536;28;20576;-70
2023/07/30 07:34:47;;;;;;;2.80;2.60;;;;;;;20.24;59.01;99598.75;10315912;28;20285;-70
2023/07/30 07:39:49;;;;;;;2.60;2.40;;;;;;;20.84;57.15;99593.44;10319723;28;20373;-69
2023/07/30 07:44:51;;;;;;;3.17;2.88;;;;;;;21.62;56.39;99543.97;10318838;28;20975;-69
2023/07/30 07:49:53;;;;;;;3.75;2.83;;;;;;;21.44;56.87;99596.91;10320050;28;20804;-69
2023/07/30 07:54:55;;;;;;;2.70;2.50;;;;;;;19.99;57.48;99650.84;10320166;28;20253;-70
2023/07/30 07:59:57;;;;;;;4.03;2.30;;;;;;;20.47;55.49;99594.13;10320643;28;20240;-69
2023/07/30 08:04:59;;;;;;;4.95;2.67;;;;;;;20.59;55.62;99613.81;10317356;28;20843;-69
2023/07/30 08:10:01;;;;;;;3.42;2.50;;;;;;;20.12;54.17;99646.91;10314529;28;20232;-69
2023/07/30 08:15:03;;;;;;;2.83;2.63;;;;;;;21.38;53.62;99593.34;10320569;28;20230;-69
2023/07/30 08:20:05;;;;;;;2.65;2.45;;;;;;;20.73;54.38;99632.44;10316898;28;20321;-69
2023/07/30 08:25:07;;;;;;;2.97;2.60;;;;;;;19.80;55.53;99672.00;10317706;28;20687;-69
2023/07/30 08:30:09;;;;;;;2.78;2.58;;;;;;;20.34;55.96;99638.00;10317527;28;20245;-69
2023/07/30 08:35:11;;;;;;;3.63;2.50;;;;;;;20.76;54.34;99612.91;10316618;28;20241;-69
2023/07/30 08:40:14;;;;;;;2.95;2.65;;;;;;;20.58;53.90;99672.00;10317923;28;20257;-69
2023/07/30 08:45:19;;;;;;;2.47;2.30;;;;;;;20.75;54.04;99642.00;10318808;28;20246;-69
2023/07/30 08:50:22;;;;;;;3.47;2.55;;;;;;;20.16;54.17;99682.53;10312913;28;20234;-69
2023/07/30 08:55:25;;;;;;;3.45;2.70;;;;;;;20.51;53.48;99649.59;10315460;28;20312;-69
2023/07/30 09:00:30;;;;;;;3.60;2.90;;;;;;;20.44;53.71;99644.34;10314080;28;20273;-70
2023/07/30 09:05:32;;;;;;;2.65;2.45;;;;;;;20.00;53.02;99652.47;10314281;28;20244;-69
2023/07/30 09:10:34;;;;;;;3.85;2.83;;;;;;;20.81;51.75;99635.53;10317891;28;20233;-69
2023/07/30 09:15:37;;;;;;;3.83;2.78;;;;;;;20.71;50.36;99673.47;10317204;28;20801;-69
2023/07/30 09:20:40;;;;;;;2.67;2.47;;;;;;;21.60;49.36;99665.91;10314093;28;20249;-70
2023/07/30 09:25:42;;;;;;;2.50;2.30;;;;;;;20.99;50.06;99672.44;10288273;28;20688;-69
2023/07/30 09:30:49;;;;;;;2.15;1.95;;;;;;;20.16;51.69;99688.81;10300127;28;20233;-69
2023/07/30 09:35:53;;;;;;;3.88;2.55;;;;;;;20.90;50.29;99646.78;10312833;28;20241;-69
2023/07/30 09:41:00;;;;;;;3.25;2.25;;;;;;;19.64;50.44;99716.28;10313623;28;20277;-69
2023/07/30 09:46:03;;;;;;;2.30;2.00;;;;;;;20.10;49.29;99681.66;10311757;28;20316;-68
2023/07/30 09:51:06;;;;;;;4.15;2.05;;;;;;;20.77;48.51;99639.88;10315423;28;20234;-69
2023/07/30 09:56:08;;;;;;;2.95;2.20;;;;;;;20.19;48.84;99696.47;10284016;28;20710;-69
2023/07/30 10:01:10;;;;;;;2.28;1.83;;;;;;;21.18;47.31;99663.91;10274158;28;20226;-69
2023/07/30 10:06:13;;;;;;;3.35;2.13;;;;;;;20.69;47.55;99706.34;10300876;28;20421;-69
2023/07/30 10:11:15;;;;;;;3.20;1.90;;;;;;;21.79;46.46;99669.84;10313116;28;20241;-69
2023/07/30 10:16:16;;;;;;;2.33;2.13;;;;;;;21.34;47.70;99678.47;10316423;28;21983;-69
2023/07/30 10:21:23;;;;;;;1.98;1.63;;;;;;;20.42;48.42;99662.00;10305268;28;20237;-69
2023/07/30 10:26:29;;;;;;;4.63;1.70;;;;;;;21.14;47.04;99673.66;10306578;28;20226;-69
2023/07/30 10:31:42;;;;;;;2.25;1.52;;;;;;;20.80;46.49;99649.41;10308660;28;20288;-69
2023/07/30 10:36:47;;;;;;;2.75;1.70;;;;;;;21.34;45.33;99619.44;10312298;28;20226;-69
2023/07/30 10:41:50;;;;;;;2.65;1.77;;;;;;;21.14;45.37;99635.56;10314912;28;20249;-69
2023/07/30 10:46:56;;;;;;;2.28;1.63;;;;;;;20.86;45.35;99641.03;10310906;28;20241;-69
2023/07/30 10:51:58;;;;;;;1.73;1.20;;;;;;;20.97;45.20;99662.88;10277311;28;20685;-69
2023/07/30 10:57:00;;;;;;;11.60;2.10;;;;;;;20.64;44.54;99698.13;10271925;28;20231;-69
2023/07/30 11:06:25;;;;;;;1.58;1.45;;;;;;;18.93;49.55;99619.84;10330997;28;20853;-69
2023/07/30 11:11:26;;;;;;;2.88;1.77;;;;;;;18.20;48.81;99656.56;10335901;28;20766;-70
2023/07/30 11:16:28;;;;;;;1.83;1.73;;;;;;;19.07;49.01;99592.44;10346838;28;20639;-70
2023/07/30 11:21:30;;;;;;;1.70;1.55;;;;;;;19.02;48.62;99621.09;10341782;28;20685;-69
2023/07/30 11:26:32;;;;;;;4.20;1.80;;;;;;;19.17;47.71;99628.66;10344030;28;20232;-69
2023/07/30 11:31:34;;;;;;;3.50;1.60;;;;;;;18.67;47.68;99666.50;10340538;28;20328;-69
2023/07/30 11:36:36;;;;;;;2.97;1.83;;;;;;;19.50;46.31;99637.88;10344061;28;20233;-70
2023/07/30 11:41:38;;;;;;;2.05;1.63;;;;;;;20.03;45.22;99664.72;10347804;28;20248;-70
2023/07/30 11:46:53;;;;;;;2.58;1.75;;;;;;;19.26;46.29;99677.91;10347449;28;20228;-70
2023/07/30 11:52:08;;;;;;;2.50;1.73;;;;;;;19.07;46.42;99693.56;10347862;28;20282;-69
2023/07/30 11:57:10;;;;;;;5.22;1.77;;;;;;;19.50;45.54;99741.00;10344580;28;20259;-70
2023/07/30 12:02:18;;;;;;;2.10;1.90;;;;;;;19.95;45.44;99677.66;10346240;28;20329;-70
2023/07/30 12:07:24;;;;;;;4.70;1.90;;;;;;;20.90;45.70;99624.22;10347918;28;20237;-70
2023/07/30 12:12:27;;;;;;;2.08;1.77;;;;;;;21.20;43.94;99716.16;10339155;28;20229;-69
2023/07/30 12:17:28;;;;;;;2.35;1.60;;;;;;;18.99;45.21;99726.50;10313759;28;20242;-70
2023/07/30 12:22:30;;;;;;;3.75;1.83;;;;;;;19.74;44.10;99659.44;10315034;28;20850;-70
2023/07/30 12:27:32;;;;;;;3.15;2.35;;;;;;;20.18;44.25;99694.03;10312107;28;20252;-69
2023/07/30 12:32:33;;;;;;;4.10;1.92;;;;;;;19.52;44.81;99728.00;10313166;28;20313;-70
2023/07/30 12:37:36;;;;;;;3.35;1.70;;;;;;;19.22;45.80;99743.75;10311994;28;20320;-70
2023/07/30 12:42:38;;;;;;;2.83;1.95;;;;;;;19.88;44.42;99679.72;10310589;28;20729;-70
2023/07/30 12:47:40;;;;;;;3.42;2.15;;;;;;;20.11;44.07;99659.69;10310005;28;20253;-70
2023/07/30 12:52:43;;;;;;;4.05;2.08;;;;;;;20.31;44.39;99699.91;10310089;28;20680;-70
2023/07/30 12:57:45;;;;;;;4.13;2.17;;;;;;;20.57;43.20;99634.19;10313838;28;20237;-69
2023/07/30 13:02:47;;;;;;;1.90;1.60;;;;;;;20.96;43.18;99672.97;10312232;28;20238;-70
2023/07/30 13:07:49;;;;;;;4.63;2.05;;;;;;;20.57;43.21;99724.69;10314111;28;20229;-69
2023/07/30 13:12:51;;;;;;;2.00;1.80;;;;;;;20.56;42.47;99668.69;10310963;28;20250;-69
2023/07/30 13:17:53;;;;;;;2.53;1.58;;;;;;;20.15;41.67;99706.19;10311746;28;20238;-69
2023/07/30 13:22:54;;;;;;;3.13;2.00;;;;;;;19.92;42.21;99656.44;10305929;28;20242;-69
2023/07/30 13:27:56;;;;;;;3.33;1.67;;;;;;;21.51;41.44;99675.63;10312105;28;20347;-69
2023/07/30 13:32:58;;;;;;;5.20;1.73;;;;;;;20.17;41.50;99742.09;10310193;28;20234;-67
2023/07/30 13:37:59;;;;;;;1.58;1.48;;;;;;;21.40;39.82;99688.34;10310268;28;20244;-67
2023/07/30 13:43:01;;;;;;;4.32;2.05;;;;;;;20.60;39.86;99685.31;10312032;28;20494;-69
2023/07/30 13:48:03;;;;;;;2.03;1.30;;;;;;;20.17;40.17;99695.09;10307767;28;20324;-70
2023/07/30 13:53:05;;;;;;;3.17;1.25;;;;;;;20.45;39.66;99699.53;10312007;28;20273;-69
2023/07/30 13:58:08;;;;;;;3.42;1.50;;;;;;;22.19;38.67;99650.50;10310084;28;20241;-69
2023/07/30 14:03:11;;;;;;;2.90;1.75;;;;;;;20.03;40.01;99738.06;10303660;28;20716;-69
2023/07/30 14:08:13;;;;;;;2.85;1.73;;;;;;;19.94;39.65;99734.94;10308698;28;20237;-70
2023/07/30 14:13:15;;;;;;;2.95;1.67;;;;;;;22.55;37.58;99667.00;10306393;28;20337;-69
2023/07/30 14:18:16;;;;;;;2.08;1.55;;;;;;;21.36;39.58;99753.38;10308589;28;20323;-69
2023/07/30 14:23:18;;;;;;;2.58;1.40;;;;;;;21.43;38.78;99690.56;10305855;28;20265;-69
2023/07/30 14:28:20;;;;;;;2.40;1.40;;;;;;;21.43;38.95;99674.22;10307926;28;20729;-69
2023/07/30 14:33:22;;;;;;;3.40;1.75;;;;;;;21.56;38.19;99653.88;10310155;28;20241;-68
2023/07/30 14:38:24;;;;;;;2.35;1.70;;;;;;;20.83;38.61;99722.31;10311611;28;20226;-69
2023/07/30 14:43:26;;;;;;;3.80;1.92;;;;;;;20.38;39.51;99766.81;10310830;28;20290;-68
2023/07/30 14:48:28;;;;;;;4.75;1.52;;;;;;;21.37;37.88;99654.31;10307728;28;20225;-69
2023/07/30 14:53:30;;;;;;;2.92;1.73;;;;;;;20.20;38.00;99738.06;10312424;28;20333;-69
2023/07/30 14:58:31;;;;;;;2.20;1.48;;;;;;;21.48;38.61;99655.22;10309220;28;20369;-69
2023/07/30 15:03:33;;;;;;;4.80;1.92;;;;;;;22.83;36.89;99633.81;10302637;28;20237;-73
2023/07/30 15:08:35;;;;;;;2.75;1.45;;;;;;;20.42;38.13;99710.91;10302666;28;20330;-69
2023/07/30 15:13:36;;;;;;;3.22;1.77;;;;;;;19.86;38.11;99738.88;10311733;28;22058;-69
2023/07/30 15:18:38;;;;;;;4.10;1.80;;;;;;;20.66;38.30;99685.09;10306416;28;21880;-69
2023/07/30 15:23:42;;;;;;;2.80;1.63;;;;;;;20.96;38.04;99696.63;10306268;28;20948;-69
2023/07/30 15:28:44;;;;;;;2.55;1.48;;;;;;;21.43;38.20;99644.28;10302192;28;20235;-69
2023/07/30 15:33:46;;;;;;;1.83;1.42;;;;;;;22.32;38.19;99636.38;10306246;28;20566;-69
2023/07/30 15:38:51;;;;;;;1.85;1.35;;;;;;;20.75;38.97;99684.66;10306397;28;20276;-68
2023/07/30 15:43:53;;;;;;;3.95;1.70;;;;;;;21.34;38.36;99662.97;10305038;28;20234;-67
2023/07/30 15:48:55;;;;;;;4.53;1.80;;;;;;;20.16;38.82;99696.97;10307924;28;20261;-67
2023/07/30 15:53:57;;;;;;;2.95;1.67;;;;;;;21.52;37.77;99652.78;10311096;28;20229;-67
2023/07/30 15:58:59;;;;;;;2.53;1.50;;;;;;;22.71;37.37;99649.63;10314104;28;20237;-68
2023/07/30 16:04:00;;;;;;;3.05;1.50;;;;;;;20.68;39.38;99698.44;10312722;28;20738;-69
2023/07/30 16:09:02;;;;;;;3.20;1.60;;;;;;;21.13;38.65;99661.16;10312496;28;20245;-68
2023/07/30 16:14:04;;;;;;;2.30;1.45;;;;;;;20.55;39.39;99645.31;10315279;28;20229;-68
2023/07/30 16:19:07;;;;;;;3.90;1.80;;;;;;;21.73;38.48;99610.19;10318989;28;20947;-68
2023/07/30 16:24:09;;;;;;;2.72;1.60;;;;;;;20.93;39.93;99578.28;10315015;28;20714;-69
2023/07/30 16:29:11;;;;;;;3.55;1.52;;;;;;;21.55;39.54;99606.00;10315721;28;20261;-68
2023/07/30 16:34:13;;;;;;;3.58;1.70;;;;;;;21.30;39.26;99645.50;10312391;28;20860;-69
2023/07/30 16:39:15;;;;;;;3.13;1.60;;;;;;;21.42;38.97;99597.22;10312318;28;20345;-70
2023/07/30 16:44:17;;;;;;;4.32;1.65;;;;;;;21.86;38.37;99623.31;10313778;28;20627;-70
2023/07/30 16:49:19;;;;;;;3.40;1.88;;;;;;;21.15;39.32;99589.06;10317456;28;20234;-68
2023/07/30 16:54:20;;;;;;;5.55;1.98;;;;;;;22.39;37.94;99560.63;10314140;28;20234;-69
2023/07/30 16:59:22;;;;;;;1.90;1.55;;;;;;;20.67;39.76;99637.00;10312399;28;20238;-70
2023/07/30 17:04:24;;;;;;;3.88;1.50;;;;;;;21.69;38.89;99587.28;10317181;28;20257;-69
2023/07/30 17:09:26;;;;;;;2.60;1.45;;;;;;;22.05;38.68;99650.97;10311539;28;20741;-69
2023/07/30 17:14:29;;;;;;;2.42;1.55;;;;;;;21.46;39.07;99675.59;10315593;28;20312;-69
2023/07/30 17:19:31;;;;;;;2.92;1.73;;;;;;;21.16;39.47;99579.03;10313511;28;20284;-69
2023/07/30 17:24:33;;;;;;;1.88;1.60;;;;;;;21.05;39.78;99597.97;10314707;28;20233;-69
2023/07/30 17:29:35;;;;;;;5.20;1.85;;;;;;;20.67;39.33;99637.81;10308512;28;20241;-68
2023/07/30 17:34:37;;;;;;;2.15;1.65;;;;;;;22.09;38.25;99583.97;10313781;28;20245;-69
2023/07/30 17:39:39;;;;;;;3.58;1.77;;;;;;;21.53;39.42;99621.78;10309434;28;20245;-69
2023/07/30 17:44:40;;;;;;;2.50;1.60;;;;;;;21.23;40.06;99634.84;10311833;28;20672;-71
2023/07/30 17:49:42;;;;;;;1.70;1.60;;;;;;;21.75;39.83;99663.28;10313199;28;20709;-70
2023/07/30 17:54:50;;;;;;;3.05;1.90;;;;;;;21.80;39.45;99684.31;10312973;28;20280;-69
2023/07/30 17:59:52;;;;;;;1.75;1.38;;;;;;;21.82;39.98;99665.78;10312140;28;20272;-68
2023/07/30 18:04:54;;;;;;;3.45;1.50;;;;;;;21.76;40.49;99613.22;10311050;28;20241;-69
2023/07/30 18:09:57;;;;;;;2.97;1.60;;;;;;;21.78;40.12;99645.63;10302040;28;20242;-70
2023/07/30 18:14:59;;;;;;;3.85;1.70;;;;;;;21.70;40.52;99632.50;10311079;28;20265;-67
2023/07/30 18:20:01;;;;;;;2.75;1.50;;;;;;;21.14;40.84;99635.56;10312912;28;20234;-67
2023/07/30 18:25:04;;;;;;;2.33;1.75;;;;;;;20.98;40.79;99667.25;10308202;28;20318;-68
2023/07/30 18:30:06;;;;;;;2.03;1.40;;;;;;;20.91;41.28;99629.38;10308062;28;20238;-71
2023/07/30 18:35:10;;;;;;;3.00;1.75;;;;;;;21.15;40.97;99656.25;10308630;28;20735;-68
2023/07/30 18:40:11;;;;;;;3.85;1.67;;;;;;;21.09;41.08;99660.84;10307729;28;20814;-68
2023/07/30 18:45:14;;;;;;;3.17;1.70;;;;;;;20.42;42.25;99657.38;10309510;28;20556;-67
2023/07/30 18:50:16;;;;;;;4.03;1.80;;;;;;;20.77;41.58;99628.19;10307514;28;20625;-67
2023/07/30 18:55:17;;;;;;;3.40;1.45;;;;;;;20.96;41.15;99612.31;10309340;28;20223;-68
2023/07/30 19:00:19;;;;;;;4.32;1.83;;;;;;;21.18;41.38;99628.53;10288080;28;21992;-67
2023/07/30 19:05:21;;;;;;;2.65;1.58;;;;;;;21.20;41.58;99624.47;10266857;28;20238;-66
2023/07/30 19:10:23;;;;;;;2.15;1.58;;;;;;;20.83;41.65;99659.75;10284429;28;20240;-66
2023/07/30 19:15:25;;;;;;;6.07;1.73;;;;;;;21.18;41.58;99625.81;10304992;28;20649;-68
2023/07/30 19:20:26;;;;;;;2.40;1.70;;;;;;;19.88;43.16;99687.06;10283821;28;20231;-67
2023/07/30 19:25:28;;;;;;;2.28;1.70;;;;;;;20.25;42.93;99660.16;10270247;28;20259;-67
2023/07/30 19:30:30;;;;;;;2.08;1.77;;;;;;;20.55;42.02;99631.72;10296311;28;20281;-67
2023/07/30 19:35:32;;;;;;;2.17;1.67;;;;;;;20.33;42.51;99691.53;10312506;28;20232;-69
2023/07/30 19:40:53;;;;;;;3.42;1.60;;;;;;;19.61;43.49;99705.91;10313048;28;20237;-69
2023/07/30 19:45:56;;;;;;;4.57;2.47;;;;;;;20.28;42.75;99664.28;10286756;28;20710;-68
2023/07/30 19:50:58;;;;;;;3.80;1.75;;;;;;;20.10;42.92;99676.22;10297809;28;20241;-69
2023/07/30 19:55:59;;;;;;;3.45;1.58;;;;;;;19.24;44.34;99717.19;10288098;28;20860;-70
2023/07/30 20:01:02;;;;;;;2.50;1.70;;;;;;;19.71;43.78;99665.38;10271609;28;20234;-67
2023/07/30 20:06:05;;;;;;;3.40;1.95;;;;;;;20.11;43.24;99629.81;10276892;28;20226;-67
2023/07/30 20:11:08;;;;;;;2.75;1.67;;;;;;;20.02;43.85;99642.16;10304311;28;20588;-68
2023/07/30 20:16:12;;;;;;;3.55;2.55;;;;;;;19.65;44.12;99658.19;10319777;28;20669;-68
2023/07/30 20:21:14;;;;;;;2.83;1.70;;;;;;;19.52;44.77;99659.34;10313813;28;20238;-68
2023/07/30 20:26:17;;;;;;;5.60;1.85;;;;;;;19.52;44.10;99700.06;10313512;28;20325;-69
2023/07/30 20:31:19;;;;;;;4.35;2.05;;;;;;;19.52;44.71;99673.72;10314043;28;20241;-67
2023/07/30 20:36:20;;;;;;;6.13;1.80;;;;;;;19.01;45.29;99686.41;10317600;28;20233;-68
2023/07/30 20:41:22;;;;;;;5.25;2.00;;;;;;;19.85;44.02;99650.34;10316330;28;20658;-67
2023/07/30 20:46:24;;;;;;;5.20;1.90;;;;;;;18.68;46.37;99682.50;10317198;28;20758;-69
2023/07/30 20:51:26;;;;;;;2.00;1.80;;;;;;;18.48;46.49;99698.38;10314348;28;20234;-68
2023/07/30 20:56:30;;;;;;;5.18;1.88;;;;;;;19.32;45.81;99608.28;10314371;28;20353;-68
2023/07/30 21:01:32;;;;;;;3.50;1.80;;;;;;;19.57;44.73;99662.97;10307724;28;20295;-68
2023/07/30 21:06:34;;;;;;;3.22;2.03;;;;;;;19.36;45.45;99631.13;10312386;28;20741;-67
2023/07/30 21:11:37;;;;;;;2.80;1.80;;;;;;;19.22;45.81;99659.66;10308377;28;20229;-67
2023/07/30 21:16:39;;;;;;;2.25;1.90;;;;;;;19.72;44.65;99637.13;10315091;28;20221;-68
2023/07/30 21:21:41;;;;;;;3.00;1.77;;;;;;;20.11;43.74;99645.28;10312733;28;20241;-67
2023/07/30 21:26:43;;;;;;;2.83;1.90;;;;;;;19.34;44.77;99701.09;10312592;28;20230;-69
2023/07/30 21:31:44;;;;;;;2.53;1.70;;;;;;;19.52;44.06;99698.16;10313853;28;20329;-68
2023/07/30 21:36:47;;;;;;;2.88;1.75;;;;;;;19.93;43.90;99677.09;10311604;28;20229;-72
2023/07/30 21:41:48;;;;;;;3.17;2.03;;;;;;;19.70;43.73;99678.09;10312882;28;20336;-66
2023/07/30 21:46:50;;;;;;;4.72;2.10;;;;;;;19.60;44.00;99717.84;10311608;28;20262;-68
2023/07/30 21:51:57;;;;;;;4.17;2.13;;;;;;;19.91;43.30;99717.25;10313620;28;20416;-67
2023/07/30 21:56:59;;;;;;;3.10;1.90;;;;;;;21.28;41.83;99668.63;10314981;28;20314;-69
2023/07/30 22:02:00;;;;;;;2.75;2.50;;;;;;;20.37;43.42;99679.06;10313191;28;20291;-68
2023/07/30 22:07:05;;;;;;;4.70;1.90;;;;;;;20.34;43.28;99743.97;10312699;28;20364;-68
2023/07/30 22:12:08;;;;;;;3.38;1.85;;;;;;;20.66;42.92;99708.75;10309909;28;20230;-68
2023/07/30 22:17:10;;;;;;;3.53;1.70;;;;;;;20.18;42.85;99732.06;10311388;28;20860;-68
2023/07/30 22:22:12;;;;;;;3.22;1.90;;;;;;;19.24;44.40;99749.75;10302569;28;23016;-68
2023/07/30 22:27:14;;;;;;;5.88;2.22;;;;;;;19.07;44.79;99719.88;10306078;28;20236;-69
2023/07/30 22:32:16;;;;;;;2.37;1.73;;;;;;;19.68;43.70;99698.44;10272787;28;20226;-68
2023/07/30 22:37:17;;;;;;;2.93;1.83;;;;;;;18.95;45.02;99719.94;10271940;28;20272;-67
2023/07/30 22:42:20;;;;;;;2.47;1.77;;;;;;;18.77;45.08;99689.19;10271911;28;20233;-67
2023/07/30 22:47:22;;;;;;;3.58;2.10;;;;;;;18.80;44.76;99702.25;10270007;28;20234;-67
2023/07/30 22:52:23;;;;;;;5.13;2.10;;;;;;;19.09;44.30;99658.06;10272917;28;20835;-67
2023/07/30 22:57:25;;;;;;;3.93;2.00;;;;;;;19.15;44.56;99647.06;10316820;28;20226;-68
2023/07/30 23:02:27;;;;;;;3.03;1.80;;;;;;;18.87;44.71;99657.94;10312077;28;20238;-67
2023/07/30 23:07:29;;;;;;;2.58;1.60;;;;;;;18.18;45.60;99731.81;10311195;28;20236;-68
2023/07/30 23:12:30;;;;;;;2.87;1.77;;;;;;;18.67;45.23;99674.63;10312046;28;20317;-67
2023/07/30 23:17:32;;;;;;;4.37;2.10;;;;;;;18.99;44.94;99609.91;10303221;28;20240;-69
2023/07/30 23:22:34;;;;;;;4.90;1.80;;;;;;;18.78;45.17;99650.19;10309695;28;20218;-68
2023/07/30 23:27:36;;;;;;;3.83;2.00;;;;;;;19.45;44.53;99613.38;10307269;28;20245;-68